Time;durP1;ratioP1;P1;durP2;ratioP2;P2;SDS_P1;SDS_P2;PMS_P1;PMS_P2;Temp;Humidity;BMP_temperature;BMP_pressure;BME280_temperature;BME280_humidity;BME280_pressure;Samples;Min_cycle;Max_cycle;Signal;HPM_P1;HPM_P2
2022/03/06 00:00:18;;;;;;;31.17;15.82;;;-3.30;99.90;;;;;;6212843;23;20052;-84
2022/03/06 00:03:09;;;;;;;38.42;16.65;;;-3.30;99.90;;;;;;6213985;23;20073;-86
2022/03/06 00:05:57;;;;;;;32.63;16.42;;;-3.30;99.90;;;;;;6213805;23;20036;-85
2022/03/06 00:08:44;;;;;;;33.38;16.08;;;-3.30;99.90;;;;;;6215321;23;20025;-85
2022/03/06 00:11:31;;;;;;;33.38;16.45;;;-3.30;99.90;;;;;;6193517;23;20443;-86
2022/03/06 00:14:19;;;;;;;33.22;15.88;;;-3.30;99.90;;;;;;6214482;23;20028;-85
2022/03/06 00:17:09;;;;;;;31.45;15.60;;;-3.30;99.90;;;;;;6194995;23;20036;-85
2022/03/06 00:19:56;;;;;;;29.58;15.40;;;-3.30;99.90;;;;;;6194367;23;20100;-83
2022/03/06 00:22:43;;;;;;;31.98;16.35;;;-3.40;99.90;;;;;;6215516;23;20470;-84
2022/03/06 00:25:31;;;;;;;32.70;15.95;;;-3.30;99.90;;;;;;6218374;23;20040;-84
2022/03/06 00:28:18;;;;;;;35.33;16.65;;;-3.30;99.90;;;;;;6196513;23;20489;-84
2022/03/06 00:31:11;;;;;;;31.23;16.90;;;-3.40;99.90;;;;;;6194317;23;20024;-84
2022/03/06 00:33:59;;;;;;;33.95;15.43;;;-3.50;99.90;;;;;;6194069;23;20028;-84
2022/03/06 00:36:46;;;;;;;33.38;16.55;;;-3.60;99.90;;;;;;6201524;23;20044;-85
2022/03/06 00:39:37;;;;;;;34.03;16.65;;;-3.70;99.90;;;;;;6215614;23;20276;-86
2022/03/06 00:42:27;;;;;;;33.00;16.63;;;-3.80;99.90;;;;;;6196250;23;20020;-84
2022/03/06 00:45:18;;;;;;;35.13;16.63;;;-3.90;99.90;;;;;;6216704;23;20020;-84
2022/03/06 00:48:06;;;;;;;37.00;16.25;;;-4.00;99.90;;;;;;6216244;23;20087;-84
2022/03/06 00:50:53;;;;;;;33.65;16.58;;;-4.00;99.90;;;;;;6193663;23;20035;-84
2022/03/06 00:53:41;;;;;;;35.08;17.27;;;-4.00;99.90;;;;;;6196044;23;20043;-85
2022/03/06 00:56:28;;;;;;;31.73;15.52;;;-4.00;99.90;;;;;;6216385;23;20028;-84
2022/03/06 00:59:32;;;;;;;37.03;17.40;;;-4.00;99.90;;;;;;6196740;23;20035;-85
2022/03/06 01:02:25;;;;;;;31.05;16.38;;;-4.00;99.90;;;;;;6194661;23;20028;-86
2022/03/06 01:05:13;;;;;;;31.30;16.45;;;-3.90;99.90;;;;;;6195047;23;20422;-85
2022/03/06 01:08:01;;;;;;;33.90;15.95;;;-3.90;99.90;;;;;;6215770;23;20304;-85
2022/03/06 01:10:54;;;;;;;33.90;16.77;;;-3.80;99.90;;;;;;6193626;23;20024;-83
2022/03/06 01:13:41;;;;;;;;;;;-3.80;99.90;;;;;;6195304;23;20044;-83
2022/03/06 01:16:28;;;;;;;34.15;16.27;;;-3.70;99.90;;;;;;6217259;23;19930;-84
2022/03/06 01:19:16;;;;;;;37.58;17.08;;;-3.60;99.90;;;;;;6194505;23;20036;-83
2022/03/06 01:22:04;;;;;;;34.10;15.77;;;-3.60;99.90;;;;;;6216228;23;20035;-83
2022/03/06 01:24:51;;;;;;;37.92;16.70;;;-3.60;99.90;;;;;;6195257;23;20401;-84
2022/03/06 01:27:39;;;;;;;34.58;16.52;;;-3.60;99.90;;;;;;6215585;23;20040;-84
2022/03/06 01:30:26;;;;;;;33.67;16.50;;;-3.60;99.90;;;;;;6193072;23;20451;-83
2022/03/06 01:33:13;;;;;;;33.10;16.80;;;-3.70;99.90;;;;;;6214878;23;20028;-84
2022/03/06 01:36:04;;;;;;;34.10;15.98;;;-3.60;99.90;;;;;;6214195;23;20533;-83
2022/03/06 01:38:51;;;;;;;36.00;17.33;;;-3.70;99.90;;;;;;6214717;23;20033;-84
2022/03/06 01:41:38;;;;;;;36.17;17.70;;;-3.70;99.90;;;;;;6194866;23;20444;-84
2022/03/06 01:44:26;;;;;;;31.70;16.40;;;-3.70;99.90;;;;;;6193567;23;20020;-84
2022/03/06 01:47:15;;;;;;;35.15;17.70;;;-3.60;99.90;;;;;;6214197;23;20028;-86
2022/03/06 01:50:05;;;;;;;32.83;16.20;;;-3.60;99.90;;;;;;6216043;23;20110;-83
2022/03/06 01:52:54;;;;;;;33.92;17.35;;;-3.50;99.90;;;;;;6214576;23;20073;-85
2022/03/06 01:55:47;;;;;;;34.13;16.58;;;-3.50;99.90;;;;;;6214417;23;20033;-84
2022/03/06 01:58:38;;;;;;;37.80;17.10;;;-3.40;99.90;;;;;;6215142;23;20035;-85
2022/03/06 02:01:28;;;;;;;33.40;16.05;;;-3.30;99.90;;;;;;6216475;23;20040;-85
2022/03/06 02:04:16;;;;;;;39.67;17.48;;;-3.30;99.90;;;;;;6201794;23;20036;-85
2022/03/06 02:07:03;;;;;;;36.65;17.25;;;-3.20;99.90;;;;;;6230940;23;20032;-83
2022/03/06 02:09:53;;;;;;;36.33;15.95;;;-3.20;99.90;;;;;;6223827;23;20074;-83
2022/03/06 02:12:41;;;;;;;34.75;17.08;;;-3.30;99.90;;;;;;6215601;23;20289;-84
2022/03/06 02:15:32;;;;;;;36.92;17.30;;;-3.30;99.90;;;;;;6195751;23;20420;-84
2022/03/06 02:18:22;;;;;;;38.75;17.52;;;-3.30;99.90;;;;;;6193811;23;20361;-84
2022/03/06 02:21:11;;;;;;;35.70;17.27;;;-3.40;99.90;;;;;;6216238;23;20025;-84
2022/03/06 02:23:59;;;;;;;37.67;16.48;;;-3.50;99.90;;;;;;6214600;23;20028;-84
2022/03/06 02:26:46;;;;;;;40.88;17.17;;;-3.50;99.90;;;;;;6213317;23;20079;-85
2022/03/06 02:29:42;;;;;;;35.45;16.15;;;-3.60;99.90;;;;;;6216144;23;20047;-84
2022/03/06 02:32:29;;;;;;;32.55;16.17;;;-3.60;99.90;;;;;;6216218;23;20032;-84
2022/03/06 02:35:17;;;;;;;36.78;17.13;;;-3.60;99.90;;;;;;6199065;23;20120;-84
2022/03/06 02:38:05;;;;;;;36.03;16.25;;;-3.70;99.90;;;;;;6221501;23;20035;-84
2022/03/06 02:40:53;;;;;;;35.95;16.95;;;-3.80;99.90;;;;;;6192688;23;20052;-84
2022/03/06 02:43:43;;;;;;;36.78;16.63;;;-3.90;99.90;;;;;;6194939;23;20265;-84
2022/03/06 02:46:34;;;;;;;38.97;17.90;;;-3.90;99.90;;;;;;6194137;23;20454;-84
2022/03/06 02:49:22;;;;;;;38.85;17.38;;;-4.10;99.90;;;;;;6194117;23;20430;-84
2022/03/06 02:52:11;;;;;;;35.00;16.25;;;-4.10;99.90;;;;;;6195191;23;20025;-83
2022/03/06 02:54:59;;;;;;;37.75;17.45;;;-4.00;99.90;;;;;;6215267;23;20063;-84
2022/03/06 02:57:47;;;;;;;35.50;18.23;;;-3.90;99.90;;;;;;6196471;23;20025;-84
2022/03/06 03:00:34;;;;;;;32.13;16.98;;;-3.90;99.90;;;;;;6215313;23;20075;-85
2022/03/06 03:03:22;;;;;;;33.40;16.55;;;-3.90;99.90;;;;;;6219252;23;20025;-83
2022/03/06 03:06:12;;;;;;;39.38;18.30;;;-3.90;99.90;;;;;;6214370;23;20024;-85
2022/03/06 03:09:02;;;;;;;35.13;17.17;;;-3.90;99.90;;;;;;6215968;23;20021;-83
2022/03/06 03:11:54;;;;;;;41.38;17.48;;;-4.10;99.90;;;;;;6192249;23;20052;-84
2022/03/06 03:14:42;;;;;;;36.53;16.90;;;-4.20;99.90;;;;;;6214008;23;20043;-84
2022/03/06 03:17:36;;;;;;;34.67;16.20;;;-4.30;99.90;;;;;;6194954;23;20032;-83
2022/03/06 03:20:23;;;;;;;37.10;16.77;;;-4.40;99.90;;;;;;6191981;23;20024;-84
2022/03/06 03:23:10;;;;;;;41.78;18.70;;;-4.40;99.90;;;;;;6194336;23;20282;-85
2022/03/06 03:25:58;;;;;;;41.10;17.70;;;-4.40;99.90;;;;;;6194011;23;20028;-85
2022/03/06 03:28:46;;;;;;;42.50;18.98;;;-4.40;99.90;;;;;;6194457;23;20024;-83
2022/03/06 03:31:33;;;;;;;40.67;17.13;;;-4.50;99.90;;;;;;6212605;23;20020;-83
2022/03/06 03:34:21;;;;;;;35.47;17.55;;;-4.40;99.90;;;;;;6215574;23;20035;-84
2022/03/06 03:37:08;;;;;;;41.15;17.88;;;-4.40;99.90;;;;;;6213724;23;20087;-85
2022/03/06 03:39:55;;;;;;;37.05;17.63;;;-4.40;99.90;;;;;;6194191;23;20044;-85
2022/03/06 03:42:43;;;;;;;36.67;17.08;;;-4.40;99.90;;;;;;6213227;23;20025;-84
2022/03/06 03:45:30;;;;;;;36.03;16.50;;;-4.40;99.90;;;;;;6214838;23;20025;-84
2022/03/06 03:48:17;;;;;;;41.22;18.50;;;-4.50;99.90;;;;;;6191725;23;20024;-83
2022/03/06 03:51:10;;;;;;;41.83;17.88;;;-4.50;99.90;;;;;;6171169;23;20032;-83
2022/03/06 03:53:57;;;;;;;40.63;17.15;;;-4.50;99.90;;;;;;6193521;23;20033;-83
2022/03/06 03:56:46;;;;;;;37.80;16.92;;;-4.50;99.90;;;;;;6193910;23;20036;-85
2022/03/06 03:59:33;;;;;;;37.15;17.55;;;-4.40;99.90;;;;;;6192851;23;20032;-84
2022/03/06 04:02:21;;;;;;;37.10;18.08;;;-4.30;99.90;;;;;;6192618;23;20078;-85
2022/03/06 04:05:11;;;;;;;42.22;17.77;;;-4.20;99.90;;;;;;6213234;22;20025;-85
2022/03/06 04:07:58;;;;;;;38.20;17.33;;;-4.20;99.90;;;;;;6210590;23;20368;-84
2022/03/06 04:10:50;;;;;;;40.05;17.77;;;-4.20;99.90;;;;;;6211702;23;20281;-83
2022/03/06 04:13:42;;;;;;;38.45;17.83;;;-4.20;99.90;;;;;;6193554;23;20028;-82
2022/03/06 04:16:29;;;;;;;35.72;16.55;;;-4.20;99.90;;;;;;6213079;23;20025;-84
2022/03/06 04:19:17;;;;;;;38.47;17.73;;;-4.20;99.90;;;;;;6215308;23;20029;-84
2022/03/06 04:22:05;;;;;;;39.35;19.25;;;-4.20;99.90;;;;;;6213776;23;20028;-84
2022/03/06 04:24:52;;;;;;;39.72;18.63;;;-4.30;99.90;;;;;;6213586;23;20036;-83
2022/03/06 04:27:39;;;;;;;36.72;17.90;;;-4.30;99.90;;;;;;6191209;23;20035;-84
2022/03/06 04:30:26;;;;;;;36.63;17.35;;;-4.30;99.90;;;;;;6216224;23;20324;-85
2022/03/06 04:33:15;;;;;;;38.95;18.80;;;-4.20;99.90;;;;;;6213981;23;20050;-84
2022/03/06 04:36:03;;;;;;;40.38;18.52;;;-4.30;99.90;;;;;;6217045;23;20028;-83
2022/03/06 04:38:50;;;;;;;35.95;16.90;;;-4.40;99.90;;;;;;6199925;23;20468;-83
2022/03/06 04:41:38;;;;;;;35.45;17.55;;;-4.50;99.90;;;;;;6229347;23;20021;-83
2022/03/06 04:44:27;;;;;;;40.83;18.10;;;-4.60;99.90;;;;;;6224643;23;20396;-84
2022/03/06 04:47:17;;;;;;;39.20;19.20;;;-4.60;99.90;;;;;;6198192;23;20028;-83
2022/03/06 04:50:10;;;;;;;42.90;19.08;;;-4.70;99.90;;;;;;6198923;23;20025;-83
2022/03/06 04:53:00;;;;;;;38.50;18.48;;;-4.60;99.90;;;;;;6215277;23;20025;-83
2022/03/06 04:55:49;;;;;;;37.30;19.17;;;-4.50;99.90;;;;;;6215396;23;20025;-82
2022/03/06 04:58:37;;;;;;;39.53;18.83;;;-4.50;99.90;;;;;;6194854;23;20032;-84
2022/03/06 05:01:24;;;;;;;37.20;17.70;;;-4.40;99.90;;;;;;6215766;23;20021;-83
2022/03/06 05:04:12;;;;;;;39.55;17.65;;;-4.30;99.90;;;;;;6194832;23;20031;-83
2022/03/06 05:07:09;;;;;;;41.35;18.30;;;-4.30;99.90;;;;;;6215066;23;20036;-84
2022/03/06 05:09:56;;;;;;;37.47;18.63;;;-4.30;99.90;;;;;;6214880;23;20059;-84
2022/03/06 05:12:43;;;;;;;41.92;19.73;;;-4.30;99.90;;;;;;6215488;23;20092;-83
2022/03/06 05:15:31;;;;;;;41.92;20.67;;;-4.30;99.90;;;;;;6218089;23;20036;-83
2022/03/06 05:18:18;;;;;;;49.78;21.17;;;-4.20;99.90;;;;;;6196904;23;20293;-84
2022/03/06 05:21:05;;;;;;;43.38;18.88;;;-4.20;99.90;;;;;;6193700;23;20020;-83
2022/03/06 05:23:53;;;;;;;39.95;19.65;;;-4.30;99.90;;;;;;6215612;23;20412;-84
2022/03/06 05:26:40;;;;;;;44.15;19.80;;;-4.30;99.90;;;;;;6193306;23;20028;-83
2022/03/06 05:29:27;;;;;;;41.58;19.50;;;-4.40;99.90;;;;;;6195007;23;20126;-83
2022/03/06 05:32:14;;;;;;;37.38;18.20;;;-4.50;99.90;;;;;;6216412;23;20036;-83
2022/03/06 05:35:01;;;;;;;40.70;18.77;;;-4.50;99.90;;;;;;6215611;23;20070;-83
2022/03/06 05:37:49;;;;;;;38.15;19.40;;;-4.60;99.90;;;;;;6214605;23;20036;-85
2022/03/06 05:40:36;;;;;;;41.15;18.50;;;-4.50;99.90;;;;;;6215849;23;20420;-84
2022/03/06 05:43:23;;;;;;;37.30;17.65;;;-4.40;99.90;;;;;;6216882;23;20024;-83
2022/03/06 05:46:10;;;;;;;35.28;17.73;;;-4.40;99.90;;;;;;6217921;23;20028;-83
2022/03/06 05:49:00;;;;;;;41.70;19.20;;;-4.40;99.90;;;;;;6216986;23;20048;-82
2022/03/06 05:51:49;;;;;;;43.88;19.88;;;-4.40;99.90;;;;;;6215340;23;20024;-83
2022/03/06 05:54:36;;;;;;;45.83;20.25;;;-4.40;99.90;;;;;;6198122;23;20309;-83
2022/03/06 05:57:24;;;;;;;42.65;20.30;;;-4.40;99.90;;;;;;6216235;23;20044;-83
2022/03/06 06:00:17;;;;;;;36.72;18.58;;;-4.40;99.90;;;;;;6215275;23;20086;-83
2022/03/06 06:03:04;;;;;;;44.35;21.10;;;-4.40;99.90;;;;;;6216512;23;20086;-84
2022/03/06 06:05:52;;;;;;;49.63;21.38;;;-4.20;99.90;;;;;;6194260;23;20031;-83
2022/03/06 06:08:42;;;;;;;48.78;21.85;;;-4.20;99.90;;;;;;6196368;23;20416;-83
2022/03/06 06:11:30;;;;;;;42.63;19.42;;;-4.20;99.90;;;;;;6217958;23;20024;-83
2022/03/06 06:14:17;;;;;;;41.67;19.73;;;-4.20;99.90;;;;;;6215347;23;20029;-83
2022/03/06 06:17:06;;;;;;;43.95;21.05;;;-4.10;99.90;;;;;;6215385;23;20123;-83
2022/03/06 06:20:07;;;;;;;43.55;19.10;;;-4.10;99.90;;;;;;6218972;23;20078;-83
2022/03/06 06:22:55;;;;;;;43.85;20.48;;;-4.10;99.90;;;;;;6215141;23;20151;-83
2022/03/06 06:25:44;;;;;;;43.25;19.55;;;-4.00;99.90;;;;;;6217031;23;20028;-84
2022/03/06 06:28:34;;;;;;;44.22;20.65;;;-4.00;99.90;;;;;;6215881;23;20451;-84
2022/03/06 06:31:23;;;;;;;44.35;20.55;;;-3.80;99.90;;;;;;6214331;23;20031;-84
2022/03/06 06:34:11;;;;;;;46.38;20.27;;;-3.80;99.90;;;;;;6215798;23;20316;-84
2022/03/06 06:37:01;;;;;;;36.83;17.83;;;-3.70;99.90;;;;;;6215759;23;20349;-83
2022/03/06 06:39:50;;;;;;;38.55;18.88;;;-3.60;99.90;;;;;;6215200;23;20371;-83
2022/03/06 06:42:40;;;;;;;44.22;19.88;;;-3.50;99.90;;;;;;6217049;23;20427;-83
2022/03/06 06:45:27;;;;;;;40.65;18.83;;;-3.30;99.90;;;;;;6192269;23;20031;-83
2022/03/06 06:48:14;;;;;;;42.67;19.33;;;-3.20;99.90;;;;;;6217355;23;20411;-83
2022/03/06 06:51:02;;;;;;;40.92;19.83;;;-3.00;99.90;;;;;;6216828;23;20031;-83
2022/03/06 06:53:49;;;;;;;38.20;18.95;;;-2.80;99.90;;;;;;6217239;23;20080;-84
2022/03/06 06:56:36;;;;;;;40.50;19.25;;;-2.60;99.90;;;;;;6215208;23;20100;-84
2022/03/06 06:59:23;;;;;;;41.13;19.30;;;-2.20;99.90;;;;;;6195582;23;20086;-85
2022/03/06 07:02:10;;;;;;;40.72;19.40;;;-1.90;1.00;;;;;;6216242;23;20020;-84
2022/03/06 07:04:58;;;;;;;35.33;18.05;;;-1.60;99.90;;;;;;6217346;23;20025;-84
2022/03/06 07:07:47;;;;;;;35.28;18.65;;;-1.30;1.00;;;;;;6195765;23;20048;-84
2022/03/06 07:10:35;;;;;;;34.13;18.35;;;-1.10;2.20;;;;;;6215654;23;20020;-85
2022/03/06 07:13:24;;;;;;;35.40;18.17;;;-1.00;99.90;;;;;;6220306;23;20032;-84
2022/03/06 07:16:11;;;;;;;33.60;17.20;;;-0.90;1.00;;;;;;6206013;23;20025;-85
2022/03/06 07:19:01;;;;;;;30.25;18.02;;;-0.70;99.90;;;;;;6226641;23;20085;-85
2022/03/06 07:21:51;;;;;;;36.55;17.30;;;-0.60;99.90;;;;;;6194984;23;20032;-85
2022/03/06 07:24:39;;;;;;;33.35;17.00;;;-0.50;93.80;;;;;;6194451;23;20028;-83
2022/03/06 07:27:26;;;;;;;34.17;17.90;;;-0.30;99.90;;;;;;6196458;23;20028;-85
2022/03/06 07:30:14;;;;;;;32.88;17.92;;;0.00;1.00;;;;;;6217011;23;20055;-85
2022/03/06 07:33:01;;;;;;;30.38;17.55;;;0.40;1.00;;;;;;6194709;23;20047;-85
2022/03/06 07:35:50;;;;;;;33.88;17.88;;;0.60;30.90;;;;;;6213479;23;20047;-86
2022/03/06 07:38:39;;;;;;;32.22;17.40;;;0.90;95.80;;;;;;6214767;23;20029;-85
2022/03/06 07:41:26;;;;;;;31.00;17.45;;;1.10;99.90;;;;;;6215332;23;20024;-86
2022/03/06 07:44:14;;;;;;;34.55;18.02;;;1.50;99.90;;;;;;6216458;23;20029;-85
2022/03/06 07:47:02;;;;;;;33.40;18.08;;;1.60;99.90;;;;;;6194080;23;20024;-86
2022/03/06 07:49:53;;;;;;;30.20;17.95;;;1.70;99.90;;;;;;6193831;23;20052;-86
2022/03/06 07:52:41;;;;;;;29.40;16.50;;;1.70;99.90;;;;;;6215136;23;20055;-85
2022/03/06 07:55:28;;;;;;;32.83;17.65;;;1.90;99.90;;;;;;6214505;23;20484;-85
2022/03/06 07:58:15;;;;;;;31.52;16.55;;;2.50;99.90;;;;;;6213573;23;20039;-85
2022/03/06 08:01:03;;;;;;;31.02;17.15;;;2.50;98.00;;;;;;6213958;23;20032;-86
2022/03/06 08:03:50;;;;;;;33.97;18.15;;;2.40;97.60;;;;;;6213204;23;20029;-86
2022/03/06 08:06:44;;;;;;;32.75;17.15;;;2.50;97.90;;;;;;6218308;23;20477;-82
2022/03/06 08:09:32;;;;;;;34.20;18.13;;;2.60;96.70;;;;;;6193781;23;20020;-87
2022/03/06 08:12:27;;;;;;;31.63;17.50;;;2.90;95.90;;;;;;6218484;23;20033;-86
2022/03/06 08:15:17;;;;;;;29.38;16.38;;;3.40;95.30;;;;;;6214594;23;20025;-84
2022/03/06 08:18:05;;;;;;;25.80;16.27;;;4.00;92.80;;;;;;6218040;23;20028;-85
2022/03/06 08:20:52;;;;;;;30.10;16.83;;;4.50;90.60;;;;;;6197339;23;20083;-86
2022/03/06 08:23:39;;;;;;;26.58;17.05;;;4.90;87.20;;;;;;6196888;23;20029;-87
2022/03/06 08:26:30;;;;;;;27.48;16.92;;;5.20;84.50;;;;;;6196746;23;20154;-86
2022/03/06 08:29:30;;;;;;;28.05;17.35;;;5.30;82.50;;;;;;6216704;23;20106;-88
2022/03/06 08:32:18;;;;;;;30.75;17.52;;;5.60;80.70;;;;;;6221130;23;20487;-86
2022/03/06 08:35:12;;;;;;;29.70;17.75;;;5.20;79.70;;;;;;6196877;23;20036;-87
2022/03/06 08:37:59;;;;;;;28.30;17.23;;;5.00;80.20;;;;;;6196117;23;20039;-86
2022/03/06 08:40:50;;;;;;;30.02;17.90;;;4.90;81.00;;;;;;6217057;23;20160;-86
2022/03/06 08:43:37;;;;;;;32.08;17.85;;;4.90;81.70;;;;;;6194752;23;20032;-87
2022/03/06 08:46:24;;;;;;;29.42;17.88;;;4.40;81.30;;;;;;6216368;23;20028;-85
2022/03/06 08:49:12;;;;;;;33.10;17.77;;;4.20;83.40;;;;;;6196521;23;20110;-87
2022/03/06 08:52:03;;;;;;;30.02;17.05;;;4.40;84.50;;;;;;6197155;23;20031;-87
2022/03/06 08:54:50;;;;;;;27.75;17.38;;;4.90;82.50;;;;;;6215548;23;20058;-84
2022/03/06 08:57:38;;;;;;;30.52;16.85;;;4.70;80.90;;;;;;6219700;23;20029;-87
2022/03/06 09:00:25;;;;;;;30.05;17.58;;;4.50;80.10;;;;;;6216124;23;20412;-85
2022/03/06 09:03:12;;;;;;;31.27;16.15;;;4.60;81.10;;;;;;6194211;23;20024;-86
2022/03/06 09:06:00;;;;;;;32.78;18.10;;;4.50;79.50;;;;;;6195862;23;20020;-85
2022/03/06 09:08:47;;;;;;;29.42;17.13;;;5.00;78.30;;;;;;6225110;23;20021;-86
2022/03/06 09:11:34;;;;;;;28.35;17.40;;;4.90;77.60;;;;;;6200668;23;20021;-84
2022/03/06 09:14:22;;;;;;;27.60;15.60;;;5.10;76.00;;;;;;6221465;23;20039;-86
2022/03/06 09:17:09;;;;;;;30.05;17.05;;;4.80;75.40;;;;;;6200424;23;20162;-87
2022/03/06 09:19:58;;;;;;;31.00;16.88;;;4.60;75.10;;;;;;6194472;23;20062;-86
2022/03/06 09:22:46;;;;;;;28.75;16.20;;;4.60;75.20;;;;;;6196375;23;20048;-86
2022/03/06 09:25:33;;;;;;;27.40;15.82;;;5.20;74.80;;;;;;6216642;23;20044;-86
2022/03/06 09:28:21;;;;;;;28.98;16.40;;;5.90;72.40;;;;;;6219035;23;20363;-86
2022/03/06 09:31:09;;;;;;;26.75;15.43;;;6.50;67.90;;;;;;6217068;23;20028;-86
2022/03/06 09:33:59;;;;;;;25.33;14.52;;;7.10;63.90;;;;;;6194738;23;20393;-87
2022/03/06 09:37:04;;;;;;;26.02;15.15;;;7.70;64.10;;;;;;6216626;23;20040;-87
2022/03/06 09:39:52;;;;;;;23.58;14.60;;;7.80;59.50;;;;;;6218920;23;20027;-88
2022/03/06 09:42:40;;;;;;;23.77;15.05;;;7.50;59.50;;;;;;6216746;23;20040;-88
2022/03/06 09:45:35;;;;;;;26.30;15.65;;;7.90;58.90;;;;;;6196203;23;20108;-88
2022/03/06 09:48:24;;;;;;;24.30;15.00;;;8.20;57.60;;;;;;6224346;23;20031;-86
2022/03/06 09:51:14;;;;;;;24.88;14.75;;;7.90;57.30;;;;;;6228560;23;20101;-86
2022/03/06 09:54:04;;;;;;;26.08;15.35;;;8.10;56.90;;;;;;6209826;23;20059;-87
2022/03/06 09:56:51;;;;;;;22.90;14.35;;;7.70;57.30;;;;;;6198396;23;20043;-88
2022/03/06 09:59:39;;;;;;;21.45;13.02;;;7.80;57.00;;;;;;6196474;23;20028;-88
2022/03/06 10:02:26;;;;;;;22.50;13.43;;;7.60;57.00;;;;;;6199096;23;20083;-86
2022/03/06 10:05:35;;;;;;;22.98;13.63;;;8.00;55.30;;;;;;6218329;23;20051;-85
2022/03/06 10:08:27;;;;;;;23.45;14.13;;;8.10;54.90;;;;;;6197197;23;20035;-87
2022/03/06 10:11:15;;;;;;;23.92;14.13;;;7.90;56.00;;;;;;6215884;23;20467;-86
2022/03/06 10:14:03;;;;;;;24.30;14.30;;;7.70;55.20;;;;;;6216073;23;20029;-87
2022/03/06 10:17:14;;;;;;;23.95;13.30;;;7.40;55.90;;;;;;6196259;23;20076;-88
2022/03/06 10:20:05;;;;;;;22.80;13.63;;;8.00;55.60;;;;;;6215258;23;20035;-86
2022/03/06 10:22:53;;;;;;;24.45;14.18;;;8.50;52.80;;;;;;6196265;23;20036;-86
2022/03/06 10:25:44;;;;;;;21.10;12.82;;;8.20;52.90;;;;;;6219282;23;20032;-86
2022/03/06 10:29:15;;;;;;;23.10;13.90;;;8.00;53.00;;;;;;6177837;23;20031;-87
2022/03/06 10:32:04;;;;;;;;;;;8.90;53.90;;;;;;6181828;23;20099;-86
2022/03/06 10:35:04;;;;;;;22.95;13.23;;;9.50;51.70;;;;;;6222701;23;20283;-89
2022/03/06 10:37:52;;;;;;;21.50;13.20;;;10.20;49.30;;;;;;6182656;23;20032;-87
2022/03/06 10:40:39;;;;;;;24.15;14.45;;;11.30;47.70;;;;;;6197765;23;20103;-87
2022/03/06 10:43:33;;;;;;;21.30;13.18;;;11.20;44.60;;;;;;6196224;23;20107;-86
2022/03/06 10:46:24;;;;;;;21.90;13.30;;;10.80;45.40;;;;;;6193154;23;20024;-88
2022/03/06 10:49:16;;;;;;;24.00;11.93;;;10.80;43.80;;;;;;6201363;23;20031;-87
2022/03/06 10:52:20;;;;;;;20.03;13.53;;;9.80;45.80;;;;;;6221578;23;20024;-88
2022/03/06 10:55:35;;;;;;;20.85;13.38;;;9.60;48.30;;;;;;6200067;23;20039;-87
2022/03/06 10:58:23;;;;;;;21.90;13.43;;;9.80;46.10;;;;;;6229904;23;20024;-85
2022/03/06 11:01:25;;;;;;;21.33;13.02;;;8.80;47.20;;;;;;6219268;23;20080;-88
2022/03/06 11:04:15;;;;;;;26.55;14.27;;;8.00;48.90;;;;;;6199993;23;20028;-87
2022/03/06 11:07:05;;;;;;;21.17;13.27;;;7.30;50.10;;;;;;6206645;23;20305;-86
2022/03/06 11:09:58;;;;;;;23.23;13.10;;;6.00;52.70;;;;;;6231582;22;20054;-86
2022/03/06 11:12:46;;;;;;;21.90;14.18;;;6.70;53.10;;;;;;6186045;23;20031;-87
2022/03/06 11:15:34;;;;;;;19.20;12.55;;;8.00;50.70;;;;;;6217998;23;20311;-88
2022/03/06 11:18:24;;;;;;;19.23;12.27;;;9.50;48.00;;;;;;6199084;23;20021;-86
2022/03/06 11:21:13;;;;;;;21.73;13.50;;;10.80;44.90;;;;;;6203177;23;20028;-87
2022/03/06 11:24:19;;;;;;;21.17;13.65;;;11.50;45.40;;;;;;6198878;23;20313;-87
2022/03/06 11:27:35;;;;;;;20.55;13.65;;;11.30;43.90;;;;;;6225851;23;20116;-87
2022/03/06 11:30:22;;;;;;;20.40;13.35;;;10.60;43.60;;;;;;6231656;23;20021;-88
2022/03/06 11:33:10;;;;;;;21.70;13.63;;;9.40;46.10;;;;;;6198946;23;20029;-86
2022/03/06 11:35:58;;;;;;;22.45;14.18;;;8.00;48.40;;;;;;6221489;23;20046;-87
2022/03/06 11:38:48;;;;;;;23.90;13.45;;;7.00;51.10;;;;;;6201117;23;20029;-87
2022/03/06 11:41:38;;;;;;;;;;;6.80;51.90;;;;;;6203480;23;20024;-88
2022/03/06 11:44:50;;;;;;;22.42;14.57;;;6.70;52.10;;;;;;6227914;23;19999;-88
2022/03/06 11:47:39;;;;;;;23.75;14.10;;;6.80;52.70;;;;;;6200384;23;20020;-86
2022/03/06 11:50:29;;;;;;;24.77;14.43;;;6.90;52.80;;;;;;6223052;23;20080;-84
2022/03/06 11:53:47;;;;;;;19.95;13.30;;;7.50;51.80;;;;;;6201061;23;20374;-86
2022/03/06 11:56:41;;;;;;;25.23;15.20;;;7.60;50.70;;;;;;6200721;23;20091;-87
2022/03/06 11:59:35;;;;;;;25.77;14.65;;;7.10;51.10;;;;;;6225204;23;20025;-87
2022/03/06 12:02:24;;;;;;;22.90;13.77;;;6.80;52.00;;;;;;6204990;23;20021;-86
2022/03/06 12:05:12;;;;;;;23.42;14.48;;;6.70;52.40;;;;;;6219375;23;20391;-86
2022/03/06 12:08:00;;;;;;;21.08;13.32;;;6.50;52.70;;;;;;6203314;23;20030;-83
2022/03/06 12:10:48;;;;;;;23.83;14.02;;;6.90;52.90;;;;;;6205888;23;20024;-88
2022/03/06 12:13:35;;;;;;;24.23;14.10;;;7.40;51.00;;;;;;6224706;23;20025;-87
2022/03/06 12:17:00;;;;;;;22.42;13.40;;;7.50;50.50;;;;;;6224246;23;20147;-88
2022/03/06 12:19:52;;;;;;;23.27;13.80;;;7.50;50.40;;;;;;6206374;23;20032;-87
2022/03/06 12:22:50;;;;;;;21.98;13.25;;;7.40;50.70;;;;;;6225834;23;20104;-86
2022/03/06 12:26:01;;;;;;;20.92;13.05;;;7.40;50.60;;;;;;6214129;23;20048;-87
2022/03/06 12:28:49;;;;;;;21.52;13.15;;;8.40;50.10;;;;;;6191706;23;20099;-87
2022/03/06 12:31:38;;;;;;;21.02;13.60;;;9.20;47.20;;;;;;6218131;23;20036;-85
2022/03/06 12:34:40;;;;;;;20.27;13.05;;;9.40;46.10;;;;;;6197781;23;20188;-87
2022/03/06 12:37:29;;;;;;;20.42;13.25;;;8.80;46.80;;;;;;6195008;23;20025;-85
2022/03/06 12:40:19;;;;;;;20.65;13.80;;;8.70;46.90;;;;;;6196844;23;20025;-84
2022/03/06 12:43:10;;;;;;;23.65;13.63;;;8.20;48.10;;;;;;6217060;23;20044;-83
2022/03/06 12:45:59;;;;;;;20.02;13.15;;;7.20;48.70;;;;;;6217968;23;20020;-88
2022/03/06 12:48:48;;;;;;;22.88;13.18;;;6.30;51.00;;;;;;6197316;23;20071;-88
2022/03/06 12:51:39;;;;;;;21.98;13.13;;;6.90;51.70;;;;;;6221710;23;20036;-87
2022/03/06 12:54:33;;;;;;;19.80;12.50;;;8.20;49.30;;;;;;6220331;23;20028;-87
2022/03/06 12:57:30;;;;;;;18.33;11.65;;;9.60;46.60;;;;;;6197102;23;20495;-87
2022/03/06 13:00:26;;;;;;;20.15;12.10;;;11.00;43.70;;;;;;6217846;23;20024;-88
2022/03/06 13:03:15;;;;;;;19.13;12.38;;;11.80;42.70;;;;;;6220222;23;20036;-88
2022/03/06 13:06:14;;;;;;;17.77;12.35;;;11.40;40.40;;;;;;6219666;23;20020;-89
2022/03/06 13:09:03;;;;;;;18.88;11.80;;;12.00;39.40;;;;;;6219004;23;20305;-88
2022/03/06 13:11:51;;;;;;;17.20;11.18;;;12.50;39.40;;;;;;6218479;23;20021;-87
2022/03/06 13:14:40;;;;;;;17.70;11.70;;;12.50;36.70;;;;;;6198826;23;20039;-87
2022/03/06 13:17:28;;;;;;;16.50;11.30;;;12.20;38.90;;;;;;6216755;23;20025;-88
2022/03/06 13:20:19;;;;;;;15.68;11.48;;;12.90;38.30;;;;;;6221673;23;20080;-88
2022/03/06 13:23:17;;;;;;;16.25;11.20;;;13.70;36.90;;;;;;6199821;23;20025;-87
2022/03/06 13:26:07;;;;;;;16.77;11.57;;;13.90;33.90;;;;;;6219447;23;20365;-88
2022/03/06 13:28:55;;;;;;;16.20;11.23;;;14.60;34.30;;;;;;6195669;23;20024;-86
2022/03/06 13:31:47;;;;;;;20.30;12.30;;;13.30;35.10;;;;;;6217011;23;20024;-88
2022/03/06 13:34:43;;;;;;;13.75;10.38;;;14.20;33.50;;;;;;6199114;23;20424;-88
2022/03/06 13:37:40;;;;;;;14.98;10.70;;;15.80;32.00;;;;;;6196520;23;20028;-89
2022/03/06 13:40:30;;;;;;;15.45;10.50;;;16.50;31.00;;;;;;6216844;23;20035;-88
2022/03/06 13:43:30;;;;;;;16.88;11.73;;;16.30;30.20;;;;;;6196874;23;20024;-87
2022/03/06 13:46:17;;;;;;;15.85;11.55;;;13.50;33.30;;;;;;6196649;23;20021;-86
2022/03/06 13:49:13;;;;;;;16.55;11.25;;;11.30;37.50;;;;;;6217006;23;20032;-85
2022/03/06 13:52:08;;;;;;;16.90;12.02;;;9.20;41.10;;;;;;6196576;23;20312;-86
2022/03/06 13:55:10;;;;;;;16.80;11.77;;;7.90;44.90;;;;;;6196843;23;20032;-87
2022/03/06 13:58:18;;;;;;;13.25;9.18;;;7.70;46.30;;;;;;6217664;23;20024;-86
2022/03/06 14:01:11;;;;;;;17.27;10.90;;;7.80;46.40;;;;;;6217781;23;20025;-87
2022/03/06 14:04:09;;;;;;;21.02;11.27;;;8.00;46.40;;;;;;6216081;23;20021;-86
2022/03/06 14:07:04;;;;;;;18.60;11.68;;;8.40;45.40;;;;;;6214885;23;20024;-85
2022/03/06 14:09:52;;;;;;;19.83;11.43;;;7.90;44.90;;;;;;6215152;23;20025;-86
2022/03/06 14:12:46;;;;;;;17.52;10.90;;;7.30;46.30;;;;;;6216327;23;20070;-85
2022/03/06 14:15:33;;;;;;;18.45;11.50;;;7.20;47.60;;;;;;6216217;23;20038;-87
2022/03/06 14:18:37;;;;;;;17.35;11.10;;;7.20;47.80;;;;;;6217276;23;20027;-86
2022/03/06 14:21:26;;;;;;;18.58;11.23;;;7.10;47.80;;;;;;6215779;23;20127;-87
2022/03/06 14:24:16;;;;;;;17.33;10.95;;;6.90;47.60;;;;;;6217258;23;20021;-85
2022/03/06 14:27:04;;;;;;;18.77;10.98;;;6.80;48.10;;;;;;6195230;23;20407;-86
2022/03/06 14:29:54;;;;;;;17.50;11.07;;;6.40;48.30;;;;;;6196600;23;20024;-86